sensor_id;sensor_type;location;lat;lon;timestamp;P1;durP1;ratioP1;P2;durP2;ratioP2
10154;SDS011;5118;48.570;7.916;2023-05-10T00:00:42;4.77;;;2.20;;
10154;SDS011;5118;48.570;7.916;2023-05-10T00:03:10;2.30;;;2.10;;
10154;SDS011;5118;48.570;7.916;2023-05-10T00:05:39;2.30;;;2.10;;
10154;SDS011;5118;48.570;7.916;2023-05-10T00:08:08;2.93;;;2.40;;
10154;SDS011;5118;48.570;7.916;2023-05-10T00:10:38;2.10;;;2.00;;
10154;SDS011;5118;48.570;7.916;2023-05-10T00:13:07;1.77;;;1.67;;
10154;SDS011;5118;48.570;7.916;2023-05-10T00:15:36;2.17;;;1.97;;
10154;SDS011;5118;48.570;7.916;2023-05-10T00:18:04;1.90;;;1.80;;
10154;SDS011;5118;48.570;7.916;2023-05-10T00:20:33;2.67;;;1.93;;
10154;SDS011;5118;48.570;7.916;2023-05-10T00:23:01;1.90;;;1.80;;
10154;SDS011;5118;48.570;7.916;2023-05-10T00:25:30;2.17;;;1.97;;
10154;SDS011;5118;48.570;7.916;2023-05-10T00:28:00;4.13;;;2.50;;
10154;SDS011;5118;48.570;7.916;2023-05-10T00:30:29;2.10;;;2.00;;
10154;SDS011;5118;48.570;7.916;2023-05-10T00:32:58;2.10;;;2.00;;
10154;SDS011;5118;48.570;7.916;2023-05-10T00:35:27;2.47;;;2.23;;
10154;SDS011;5118;48.570;7.916;2023-05-10T00:37:55;2.10;;;1.90;;
10154;SDS011;5118;48.570;7.916;2023-05-10T00:40:24;2.20;;;2.00;;
10154;SDS011;5118;48.570;7.916;2023-05-10T00:42:57;2.30;;;2.10;;
10154;SDS011;5118;48.570;7.916;2023-05-10T00:45:27;2.43;;;2.07;;
10154;SDS011;5118;48.570;7.916;2023-05-10T00:47:56;2.53;;;2.33;;
10154;SDS011;5118;48.570;7.916;2023-05-10T00:50:26;2.97;;;2.40;;
10154;SDS011;5118;48.570;7.916;2023-05-10T00:52:55;5.10;;;2.40;;
10154;SDS011;5118;48.570;7.916;2023-05-10T00:55:24;3.57;;;2.67;;
10154;SDS011;5118;48.570;7.916;2023-05-10T00:57:52;2.77;;;2.50;;
10154;SDS011;5118;48.570;7.916;2023-05-10T01:00:21;3.30;;;2.37;;
10154;SDS011;5118;48.570;7.916;2023-05-10T01:02:51;4.37;;;2.50;;
10154;SDS011;5118;48.570;7.916;2023-05-10T01:05:21;2.77;;;2.57;;
10154;SDS011;5118;48.570;7.916;2023-05-10T01:07:50;3.27;;;2.90;;
10154;SDS011;5118;48.570;7.916;2023-05-10T01:10:19;3.43;;;2.60;;
10154;SDS011;5118;48.570;7.916;2023-05-10T01:12:48;2.93;;;2.60;;
10154;SDS011;5118;48.570;7.916;2023-05-10T01:15:16;3.80;;;2.47;;
10154;SDS011;5118;48.570;7.916;2023-05-10T01:17:47;4.27;;;2.53;;
10154;SDS011;5118;48.570;7.916;2023-05-10T01:20:18;7.10;;;2.47;;
10154;SDS011;5118;48.570;7.916;2023-05-10T01:23:02;2.60;;;2.40;;
10154;SDS011;5118;48.570;7.916;2023-05-10T01:25:43;3.00;;;2.60;;
10154;SDS011;5118;48.570;7.916;2023-05-10T01:28:39;2.40;;;2.20;;
10154;SDS011;5118;48.570;7.916;2023-05-10T01:31:31;2.23;;;2.10;;
10154;SDS011;5118;48.570;7.916;2023-05-10T01:34:19;1.97;;;1.87;;
10154;SDS011;5118;48.570;7.916;2023-05-10T01:36:54;1.80;;;1.70;;
10154;SDS011;5118;48.570;7.916;2023-05-10T01:39:35;2.90;;;1.90;;
10154;SDS011;5118;48.570;7.916;2023-05-10T01:42:11;3.50;;;2.00;;
10154;SDS011;5118;48.570;7.916;2023-05-10T01:44:47;3.03;;;1.90;;
10154;SDS011;5118;48.570;7.916;2023-05-10T01:47:25;2.03;;;1.93;;
10154;SDS011;5118;48.570;7.916;2023-05-10T01:49:59;3.73;;;1.83;;
10154;SDS011;5118;48.570;7.916;2023-05-10T01:52:32;4.33;;;2.10;;
10154;SDS011;5118;48.570;7.916;2023-05-10T01:55:05;2.23;;;1.80;;
10154;SDS011;5118;48.570;7.916;2023-05-10T01:57:37;1.90;;;1.80;;
10154;SDS011;5118;48.570;7.916;2023-05-10T02:00:09;1.90;;;1.80;;
10154;SDS011;5118;48.570;7.916;2023-05-10T02:02:44;3.13;;;1.90;;
10154;SDS011;5118;48.570;7.916;2023-05-10T02:05:14;4.47;;;2.30;;
10154;SDS011;5118;48.570;7.916;2023-05-10T02:07:46;4.07;;;2.53;;
10154;SDS011;5118;48.570;7.916;2023-05-10T02:10:17;3.83;;;2.60;;
10154;SDS011;5118;48.570;7.916;2023-05-10T02:12:47;2.97;;;2.53;;
10154;SDS011;5118;48.570;7.916;2023-05-10T02:15:20;4.07;;;2.60;;
10154;SDS011;5118;48.570;7.916;2023-05-10T02:17:52;3.20;;;3.00;;
10154;SDS011;5118;48.570;7.916;2023-05-10T02:20:23;3.10;;;2.90;;
10154;SDS011;5118;48.570;7.916;2023-05-10T02:22:54;5.17;;;3.33;;
10154;SDS011;5118;48.570;7.916;2023-05-10T02:25:25;3.17;;;2.90;;
10154;SDS011;5118;48.570;7.916;2023-05-10T02:27:56;3.70;;;3.27;;
10154;SDS011;5118;48.570;7.916;2023-05-10T02:30:25;2.80;;;2.60;;
10154;SDS011;5118;48.570;7.916;2023-05-10T02:32:56;4.37;;;3.10;;
10154;SDS011;5118;48.570;7.916;2023-05-10T02:35:26;3.40;;;3.07;;
10154;SDS011;5118;48.570;7.916;2023-05-10T02:37:55;3.77;;;3.00;;
10154;SDS011;5118;48.570;7.916;2023-05-10T02:40:26;2.90;;;2.70;;
10154;SDS011;5118;48.570;7.916;2023-05-10T02:42:56;3.40;;;3.10;;
10154;SDS011;5118;48.570;7.916;2023-05-10T02:45:27;3.30;;;3.07;;
10154;SDS011;5118;48.570;7.916;2023-05-10T02:48:00;3.63;;;3.20;;
10154;SDS011;5118;48.570;7.916;2023-05-10T02:50:30;4.03;;;2.80;;
10154;SDS011;5118;48.570;7.916;2023-05-10T02:53:02;2.97;;;2.77;;
10154;SDS011;5118;48.570;7.916;2023-05-10T02:55:35;3.67;;;3.30;;
10154;SDS011;5118;48.570;7.916;2023-05-10T02:58:06;3.63;;;2.90;;
10154;SDS011;5118;48.570;7.916;2023-05-10T03:00:35;3.30;;;3.00;;
10154;SDS011;5118;48.570;7.916;2023-05-10T03:03:05;3.40;;;3.00;;
10154;SDS011;5118;48.570;7.916;2023-05-10T03:05:34;3.43;;;3.13;;
10154;SDS011;5118;48.570;7.916;2023-05-10T03:08:03;3.63;;;3.27;;
10154;SDS011;5118;48.570;7.916;2023-05-10T03:10:33;3.63;;;3.07;;
10154;SDS011;5118;48.570;7.916;2023-05-10T03:13:10;3.30;;;3.00;;
10154;SDS011;5118;48.570;7.916;2023-05-10T03:15:47;4.43;;;3.10;;
10154;SDS011;5118;48.570;7.916;2023-05-10T03:18:29;3.70;;;3.40;;
10154;SDS011;5118;48.570;7.916;2023-05-10T03:21:04;5.83;;;3.30;;
10154;SDS011;5118;48.570;7.916;2023-05-10T03:23:41;3.40;;;3.20;;
10154;SDS011;5118;48.570;7.916;2023-05-10T03:26:13;3.80;;;3.40;;
10154;SDS011;5118;48.570;7.916;2023-05-10T03:28:45;3.83;;;3.13;;
10154;SDS011;5118;48.570;7.916;2023-05-10T03:31:16;3.70;;;3.40;;
10154;SDS011;5118;48.570;7.916;2023-05-10T03:33:48;5.70;;;3.73;;
10154;SDS011;5118;48.570;7.916;2023-05-10T03:36:22;10.67;;;9.63;;
10154;SDS011;5118;48.570;7.916;2023-05-10T03:38:51;5.80;;;5.30;;
10154;SDS011;5118;48.570;7.916;2023-05-10T03:41:19;6.97;;;5.33;;
10154;SDS011;5118;48.570;7.916;2023-05-10T03:43:48;4.50;;;4.10;;
10154;SDS011;5118;48.570;7.916;2023-05-10T03:46:16;4.50;;;4.10;;
10154;SDS011;5118;48.570;7.916;2023-05-10T03:48:45;5.03;;;3.57;;
10154;SDS011;5118;48.570;7.916;2023-05-10T03:51:15;5.03;;;3.93;;
10154;SDS011;5118;48.570;7.916;2023-05-10T03:53:44;4.97;;;3.80;;
10154;SDS011;5118;48.570;7.916;2023-05-10T03:56:12;4.37;;;3.83;;
10154;SDS011;5118;48.570;7.916;2023-05-10T03:58:42;6.43;;;4.13;;
10154;SDS011;5118;48.570;7.916;2023-05-10T04:01:10;4.90;;;3.67;;
10154;SDS011;5118;48.570;7.916;2023-05-10T04:03:39;4.43;;;4.03;;
10154;SDS011;5118;48.570;7.916;2023-05-10T04:06:10;3.87;;;3.57;;
10154;SDS011;5118;48.570;7.916;2023-05-10T04:08:39;3.50;;;3.20;;
10154;SDS011;5118;48.570;7.916;2023-05-10T04:11:07;3.80;;;3.50;;
10154;SDS011;5118;48.570;7.916;2023-05-10T04:13:37;7.97;;;3.60;;
10154;SDS011;5118;48.570;7.916;2023-05-10T04:16:05;3.97;;;3.20;;
10154;SDS011;5118;48.570;7.916;2023-05-10T04:18:34;3.63;;;3.20;;
10154;SDS011;5118;48.570;7.916;2023-05-10T04:21:03;4.77;;;3.53;;
10154;SDS011;5118;48.570;7.916;2023-05-10T04:23:33;5.07;;;4.10;;
10154;SDS011;5118;48.570;7.916;2023-05-10T04:26:02;4.27;;;3.57;;
10154;SDS011;5118;48.570;7.916;2023-05-10T04:28:30;3.60;;;3.30;;
10154;SDS011;5118;48.570;7.916;2023-05-10T04:31:02;4.07;;;3.50;;
10154;SDS011;5118;48.570;7.916;2023-05-10T04:33:31;3.93;;;3.53;;
10154;SDS011;5118;48.570;7.916;2023-05-10T04:36:00;3.60;;;3.30;;
10154;SDS011;5118;48.570;7.916;2023-05-10T04:38:29;3.97;;;3.30;;
10154;SDS011;5118;48.570;7.916;2023-05-10T04:41:06;4.40;;;3.30;;
10154;SDS011;5118;48.570;7.916;2023-05-10T04:43:35;3.37;;;3.07;;
10154;SDS011;5118;48.570;7.916;2023-05-10T04:46:04;3.03;;;2.83;;
10154;SDS011;5118;48.570;7.916;2023-05-10T04:48:33;4.00;;;3.30;;
10154;SDS011;5118;48.570;7.916;2023-05-10T04:51:02;3.30;;;3.00;;
10154;SDS011;5118;48.570;7.916;2023-05-10T04:53:33;5.83;;;3.40;;
10154;SDS011;5118;48.570;7.916;2023-05-10T04:56:03;4.60;;;3.40;;
10154;SDS011;5118;48.570;7.916;2023-05-10T04:58:34;3.93;;;3.50;;
10154;SDS011;5118;48.570;7.916;2023-05-10T05:01:05;4.13;;;3.30;;
10154;SDS011;5118;48.570;7.916;2023-05-10T05:03:35;3.97;;;3.37;;
10154;SDS011;5118;48.570;7.916;2023-05-10T05:06:04;4.53;;;3.40;;
10154;SDS011;5118;48.570;7.916;2023-05-10T05:08:33;7.43;;;3.27;;
10154;SDS011;5118;48.570;7.916;2023-05-10T05:11:06;5.17;;;3.60;;
10154;SDS011;5118;48.570;7.916;2023-05-10T05:13:35;4.97;;;4.57;;
10154;SDS011;5118;48.570;7.916;2023-05-10T05:16:04;5.17;;;4.60;;
10154;SDS011;5118;48.570;7.916;2023-05-10T05:18:33;5.03;;;4.43;;
10154;SDS011;5118;48.570;7.916;2023-05-10T05:21:02;4.93;;;4.43;;
10154;SDS011;5118;48.570;7.916;2023-05-10T05:23:30;5.40;;;3.90;;
10154;SDS011;5118;48.570;7.916;2023-05-10T05:25:59;5.33;;;4.40;;
10154;SDS011;5118;48.570;7.916;2023-05-10T05:28:29;4.73;;;4.33;;
10154;SDS011;5118;48.570;7.916;2023-05-10T05:30:59;5.33;;;4.40;;
10154;SDS011;5118;48.570;7.916;2023-05-10T05:33:28;4.70;;;3.70;;
10154;SDS011;5118;48.570;7.916;2023-05-10T05:35:56;4.70;;;3.73;;
10154;SDS011;5118;48.570;7.916;2023-05-10T05:38:27;4.20;;;3.80;;
10154;SDS011;5118;48.570;7.916;2023-05-10T05:40:56;4.30;;;3.90;;
10154;SDS011;5118;48.570;7.916;2023-05-10T05:43:25;5.10;;;4.60;;
10154;SDS011;5118;48.570;7.916;2023-05-10T05:45:55;5.07;;;4.67;;
10154;SDS011;5118;48.570;7.916;2023-05-10T05:48:24;5.50;;;5.00;;
10154;SDS011;5118;48.570;7.916;2023-05-10T05:50:54;6.67;;;4.93;;
10154;SDS011;5118;48.570;7.916;2023-05-10T05:53:23;5.67;;;5.17;;
10154;SDS011;5118;48.570;7.916;2023-05-10T05:55:54;5.17;;;4.67;;
10154;SDS011;5118;48.570;7.916;2023-05-10T05:58:25;6.77;;;5.40;;
10154;SDS011;5118;48.570;7.916;2023-05-10T06:00:56;6.40;;;4.90;;
10154;SDS011;5118;48.570;7.916;2023-05-10T06:03:27;6.67;;;5.03;;
10154;SDS011;5118;48.570;7.916;2023-05-10T06:05:56;5.70;;;5.20;;
10154;SDS011;5118;48.570;7.916;2023-05-10T06:08:24;6.10;;;4.90;;
10154;SDS011;5118;48.570;7.916;2023-05-10T06:10:53;8.53;;;4.93;;
10154;SDS011;5118;48.570;7.916;2023-05-10T06:13:21;5.67;;;5.17;;
10154;SDS011;5118;48.570;7.916;2023-05-10T06:15:50;4.70;;;4.30;;
10154;SDS011;5118;48.570;7.916;2023-05-10T06:18:20;4.77;;;4.37;;
10154;SDS011;5118;48.570;7.916;2023-05-10T06:20:49;5.80;;;3.73;;
10154;SDS011;5118;48.570;7.916;2023-05-10T06:23:18;3.47;;;3.07;;
10154;SDS011;5118;48.570;7.916;2023-05-10T06:25:46;4.47;;;3.40;;
10154;SDS011;5118;48.570;7.916;2023-05-10T06:28:15;4.03;;;3.23;;
10154;SDS011;5118;48.570;7.916;2023-05-10T06:30:44;3.47;;;3.17;;
10154;SDS011;5118;48.570;7.916;2023-05-10T06:33:12;4.20;;;3.63;;
10154;SDS011;5118;48.570;7.916;2023-05-10T06:35:44;4.07;;;3.67;;
10154;SDS011;5118;48.570;7.916;2023-05-10T06:38:13;3.40;;;3.10;;
10154;SDS011;5118;48.570;7.916;2023-05-10T06:40:41;4.37;;;3.20;;
10154;SDS011;5118;48.570;7.916;2023-05-10T06:43:10;3.40;;;3.10;;
10154;SDS011;5118;48.570;7.916;2023-05-10T06:45:39;3.00;;;2.80;;
10154;SDS011;5118;48.570;7.916;2023-05-10T06:48:09;3.63;;;3.27;;
10154;SDS011;5118;48.570;7.916;2023-05-10T06:50:38;3.17;;;2.97;;
10154;SDS011;5118;48.570;7.916;2023-05-10T06:53:08;5.80;;;3.00;;
10154;SDS011;5118;48.570;7.916;2023-05-10T06:55:36;2.67;;;2.47;;
10154;SDS011;5118;48.570;7.916;2023-05-10T06:58:06;2.50;;;2.20;;
10154;SDS011;5118;48.570;7.916;2023-05-10T07:00:34;5.77;;;2.30;;
10154;SDS011;5118;48.570;7.916;2023-05-10T07:03:06;2.73;;;2.33;;
10154;SDS011;5118;48.570;7.916;2023-05-10T07:05:34;2.10;;;2.00;;
10154;SDS011;5118;48.570;7.916;2023-05-10T07:08:03;4.07;;;2.30;;
10154;SDS011;5118;48.570;7.916;2023-05-10T07:10:33;2.20;;;2.00;;
10154;SDS011;5118;48.570;7.916;2023-05-10T07:13:02;2.07;;;1.97;;
10154;SDS011;5118;48.570;7.916;2023-05-10T07:15:31;5.23;;;2.10;;
10154;SDS011;5118;48.570;7.916;2023-05-10T07:18:00;2.20;;;2.07;;
10154;SDS011;5118;48.570;7.916;2023-05-10T07:20:29;2.13;;;2.03;;
10154;SDS011;5118;48.570;7.916;2023-05-10T07:22:59;2.13;;;2.00;;
10154;SDS011;5118;48.570;7.916;2023-05-10T07:25:28;3.33;;;2.03;;
10154;SDS011;5118;48.570;7.916;2023-05-10T07:28:01;2.57;;;2.20;;
10154;SDS011;5118;48.570;7.916;2023-05-10T07:30:30;2.17;;;1.97;;
10154;SDS011;5118;48.570;7.916;2023-05-10T07:32:59;2.40;;;2.03;;
10154;SDS011;5118;48.570;7.916;2023-05-10T07:35:28;1.70;;;1.60;;
10154;SDS011;5118;48.570;7.916;2023-05-10T07:37:56;1.90;;;1.80;;
10154;SDS011;5118;48.570;7.916;2023-05-10T07:40:25;2.40;;;1.67;;
10154;SDS011;5118;48.570;7.916;2023-05-10T07:42:54;1.90;;;1.70;;
10154;SDS011;5118;48.570;7.916;2023-05-10T07:45:24;1.93;;;1.40;;
10154;SDS011;5118;48.570;7.916;2023-05-10T07:47:52;2.13;;;1.40;;
10154;SDS011;5118;48.570;7.916;2023-05-10T07:50:21;2.10;;;1.40;;
10154;SDS011;5118;48.570;7.916;2023-05-10T07:52:50;1.90;;;1.50;;
10154;SDS011;5118;48.570;7.916;2023-05-10T07:55:18;1.20;;;1.10;;
10154;SDS011;5118;48.570;7.916;2023-05-10T07:57:47;2.00;;;1.40;;
10154;SDS011;5118;48.570;7.916;2023-05-10T08:00:17;1.40;;;1.30;;
10154;SDS011;5118;48.570;7.916;2023-05-10T08:02:48;2.87;;;1.57;;
10154;SDS011;5118;48.570;7.916;2023-05-10T08:05:17;2.07;;;1.30;;
10154;SDS011;5118;48.570;7.916;2023-05-10T08:07:46;4.30;;;1.40;;
10154;SDS011;5118;48.570;7.916;2023-05-10T08:10:14;2.87;;;1.40;;
10154;SDS011;5118;48.570;7.916;2023-05-10T08:12:43;1.80;;;1.47;;
10154;SDS011;5118;48.570;7.916;2023-05-10T08:15:12;1.70;;;1.60;;
10154;SDS011;5118;48.570;7.916;2023-05-10T08:17:41;1.87;;;1.57;;
10154;SDS011;5118;48.570;7.916;2023-05-10T08:20:12;2.40;;;2.20;;
10154;SDS011;5118;48.570;7.916;2023-05-10T08:22:43;3.83;;;1.50;;
10154;SDS011;5118;48.570;7.916;2023-05-10T08:25:12;4.53;;;1.10;;
10154;SDS011;5118;48.570;7.916;2023-05-10T08:27:41;1.30;;;1.20;;
10154;SDS011;5118;48.570;7.916;2023-05-10T08:30:12;3.83;;;1.60;;
10154;SDS011;5118;48.570;7.916;2023-05-10T08:32:41;1.60;;;1.50;;
10154;SDS011;5118;48.570;7.916;2023-05-10T08:35:09;2.13;;;1.30;;
10154;SDS011;5118;48.570;7.916;2023-05-10T08:37:40;1.97;;;1.20;;
10154;SDS011;5118;48.570;7.916;2023-05-10T08:40:08;1.30;;;1.20;;
10154;SDS011;5118;48.570;7.916;2023-05-10T08:42:40;1.40;;;1.30;;
10154;SDS011;5118;48.570;7.916;2023-05-10T08:45:13;2.30;;;1.30;;
10154;SDS011;5118;48.570;7.916;2023-05-10T08:47:43;1.80;;;1.40;;
10154;SDS011;5118;48.570;7.916;2023-05-10T08:50:14;1.73;;;1.60;;
10154;SDS011;5118;48.570;7.916;2023-05-10T08:52:44;3.40;;;1.60;;
10154;SDS011;5118;48.570;7.916;2023-05-10T08:55:14;2.00;;;1.70;;
10154;SDS011;5118;48.570;7.916;2023-05-10T08:57:44;2.20;;;1.90;;
10154;SDS011;5118;48.570;7.916;2023-05-10T09:00:14;1.80;;;1.70;;
10154;SDS011;5118;48.570;7.916;2023-05-10T09:02:44;2.70;;;1.60;;
10154;SDS011;5118;48.570;7.916;2023-05-10T09:05:15;1.70;;;1.60;;
10154;SDS011;5118;48.570;7.916;2023-05-10T09:07:45;1.50;;;1.40;;
10154;SDS011;5118;48.570;7.916;2023-05-10T09:10:13;1.90;;;1.40;;
10154;SDS011;5118;48.570;7.916;2023-05-10T09:12:45;1.60;;;1.50;;
10154;SDS011;5118;48.570;7.916;2023-05-10T09:15:15;1.70;;;1.60;;
10154;SDS011;5118;48.570;7.916;2023-05-10T09:17:46;1.60;;;1.50;;
10154;SDS011;5118;48.570;7.916;2023-05-10T09:20:18;1.60;;;1.50;;
10154;SDS011;5118;48.570;7.916;2023-05-10T09:22:47;4.03;;;1.60;;
10154;SDS011;5118;48.570;7.916;2023-05-10T09:25:16;1.50;;;1.40;;
10154;SDS011;5118;48.570;7.916;2023-05-10T09:27:46;1.47;;;1.30;;
10154;SDS011;5118;48.570;7.916;2023-05-10T09:30:15;1.10;;;1.00;;
10154;SDS011;5118;48.570;7.916;2023-05-10T09:32:47;1.60;;;1.10;;
10154;SDS011;5118;48.570;7.916;2023-05-10T09:35:18;3.13;;;1.23;;
10154;SDS011;5118;48.570;7.916;2023-05-10T09:37:49;1.97;;;1.00;;
10154;SDS011;5118;48.570;7.916;2023-05-10T09:40:19;2.27;;;1.07;;
10154;SDS011;5118;48.570;7.916;2023-05-10T09:42:52;1.77;;;1.10;;
10154;SDS011;5118;48.570;7.916;2023-05-10T09:45:22;2.37;;;1.20;;
10154;SDS011;5118;48.570;7.916;2023-05-10T09:47:52;2.30;;;1.10;;
10154;SDS011;5118;48.570;7.916;2023-05-10T09:50:23;1.37;;;1.00;;
10154;SDS011;5118;48.570;7.916;2023-05-10T09:52:52;2.75;;;1.00;;
10154;SDS011;5118;48.570;7.916;2023-05-10T09:55:25;1.42;;;1.30;;
10154;SDS011;5118;48.570;7.916;2023-05-10T09:57:58;1.55;;;0.75;;
10154;SDS011;5118;48.570;7.916;2023-05-10T10:00:28;2.60;;;1.10;;
10154;SDS011;5118;48.570;7.916;2023-05-10T10:03:05;3.47;;;1.20;;
10154;SDS011;5118;48.570;7.916;2023-05-10T10:05:43;3.13;;;1.08;;
10154;SDS011;5118;48.570;7.916;2023-05-10T10:08:13;1.08;;;0.98;;
10154;SDS011;5118;48.570;7.916;2023-05-10T10:10:43;1.05;;;0.93;;
10154;SDS011;5118;48.570;7.916;2023-05-10T10:13:13;1.77;;;1.10;;
10154;SDS011;5118;48.570;7.916;2023-05-10T10:15:42;1.95;;;1.17;;
10154;SDS011;5118;48.570;7.916;2023-05-10T10:18:12;3.22;;;1.02;;
10154;SDS011;5118;48.570;7.916;2023-05-10T10:20:43;1.17;;;1.02;;
10154;SDS011;5118;48.570;7.916;2023-05-10T10:23:13;3.33;;;1.33;;
10154;SDS011;5118;48.570;7.916;2023-05-10T10:25:44;1.30;;;1.00;;
10154;SDS011;5118;48.570;7.916;2023-05-10T10:28:16;2.42;;;1.00;;
10154;SDS011;5118;48.570;7.916;2023-05-10T10:30:54;2.35;;;0.98;;
10154;SDS011;5118;48.570;7.916;2023-05-10T10:33:33;1.17;;;0.93;;
10154;SDS011;5118;48.570;7.916;2023-05-10T10:36:09;2.45;;;1.13;;
10154;SDS011;5118;48.570;7.916;2023-05-10T10:38:59;1.80;;;1.00;;
10154;SDS011;5118;48.570;7.916;2023-05-10T10:41:31;3.17;;;1.20;;
10154;SDS011;5118;48.570;7.916;2023-05-10T10:47:01;2.00;;;1.05;;
10154;SDS011;5118;48.570;7.916;2023-05-10T10:49:38;1.25;;;1.00;;
10154;SDS011;5118;48.570;7.916;2023-05-10T10:55:03;1.35;;;1.25;;
10154;SDS011;5118;48.570;7.916;2023-05-10T10:57:48;2.45;;;1.30;;
10154;SDS011;5118;48.570;7.916;2023-05-10T11:00:22;2.88;;;1.35;;
10154;SDS011;5118;48.570;7.916;2023-05-10T11:02:53;1.25;;;1.15;;
10154;SDS011;5118;48.570;7.916;2023-05-10T11:08:17;3.90;;;0.90;;
10154;SDS011;5118;48.570;7.916;2023-05-10T11:10:49;1.27;;;1.17;;
10154;SDS011;5118;48.570;7.916;2023-05-10T11:16:10;1.20;;;0.70;;
10154;SDS011;5118;48.570;7.916;2023-05-10T11:18:40;0.85;;;0.82;;
10154;SDS011;5118;48.570;7.916;2023-05-10T11:21:19;1.23;;;0.80;;
10154;SDS011;5118;48.570;7.916;2023-05-10T11:23:51;0.80;;;0.80;;
10154;SDS011;5118;48.570;7.916;2023-05-10T11:26:25;1.15;;;0.90;;
10154;SDS011;5118;48.570;7.916;2023-05-10T11:28:58;0.90;;;0.82;;
10154;SDS011;5118;48.570;7.916;2023-05-10T11:31:27;2.08;;;0.90;;
10154;SDS011;5118;48.570;7.916;2023-05-10T11:33:57;1.42;;;0.70;;
10154;SDS011;5118;48.570;7.916;2023-05-10T11:36:28;2.47;;;1.10;;
10154;SDS011;5118;48.570;7.916;2023-05-10T11:39:02;2.75;;;0.82;;
10154;SDS011;5118;48.570;7.916;2023-05-10T11:41:31;1.58;;;1.08;;
10154;SDS011;5118;48.570;7.916;2023-05-10T11:43:59;0.95;;;0.75;;
10154;SDS011;5118;48.570;7.916;2023-05-10T11:46:29;2.00;;;0.80;;
10154;SDS011;5118;48.570;7.916;2023-05-10T11:48:58;1.55;;;0.80;;
10154;SDS011;5118;48.570;7.916;2023-05-10T11:51:33;1.27;;;0.80;;
10154;SDS011;5118;48.570;7.916;2023-05-10T11:54:06;1.15;;;0.70;;
10154;SDS011;5118;48.570;7.916;2023-05-10T11:56:36;0.90;;;0.80;;
10154;SDS011;5118;48.570;7.916;2023-05-10T11:59:05;3.47;;;1.02;;
10154;SDS011;5118;48.570;7.916;2023-05-10T12:01:34;1.98;;;0.90;;
10154;SDS011;5118;48.570;7.916;2023-05-10T12:04:03;0.80;;;0.80;;
10154;SDS011;5118;48.570;7.916;2023-05-10T12:06:34;1.77;;;0.80;;
10154;SDS011;5118;48.570;7.916;2023-05-10T12:09:09;1.52;;;0.85;;
10154;SDS011;5118;48.570;7.916;2023-05-10T12:11:39;1.33;;;1.00;;
10154;SDS011;5118;48.570;7.916;2023-05-10T12:14:10;1.50;;;0.90;;
10154;SDS011;5118;48.570;7.916;2023-05-10T12:16:39;1.98;;;0.95;;
10154;SDS011;5118;48.570;7.916;2023-05-10T12:19:08;2.50;;;0.98;;
10154;SDS011;5118;48.570;7.916;2023-05-10T12:21:37;1.50;;;0.90;;
10154;SDS011;5118;48.570;7.916;2023-05-10T12:24:09;1.10;;;0.80;;
10154;SDS011;5118;48.570;7.916;2023-05-10T12:26:38;2.13;;;0.90;;
10154;SDS011;5118;48.570;7.916;2023-05-10T12:29:13;1.90;;;0.75;;
10154;SDS011;5118;48.570;7.916;2023-05-10T12:31:50;0.82;;;0.80;;
10154;SDS011;5118;48.570;7.916;2023-05-10T12:34:23;2.15;;;0.80;;
10154;SDS011;5118;48.570;7.916;2023-05-10T12:36:53;1.17;;;0.93;;
10154;SDS011;5118;48.570;7.916;2023-05-10T12:39:23;2.03;;;1.00;;
10154;SDS011;5118;48.570;7.916;2023-05-10T12:41:52;2.30;;;0.95;;
10154;SDS011;5118;48.570;7.916;2023-05-10T12:44:21;1.75;;;0.80;;
10154;SDS011;5118;48.570;7.916;2023-05-10T12:46:49;1.52;;;0.90;;
10154;SDS011;5118;48.570;7.916;2023-05-10T12:49:18;1.77;;;0.70;;
10154;SDS011;5118;48.570;7.916;2023-05-10T12:51:47;0.60;;;0.60;;
10154;SDS011;5118;48.570;7.916;2023-05-10T12:54:15;0.85;;;0.65;;
10154;SDS011;5118;48.570;7.916;2023-05-10T12:56:45;1.38;;;0.75;;
10154;SDS011;5118;48.570;7.916;2023-05-10T12:59:14;1.75;;;1.00;;
10154;SDS011;5118;48.570;7.916;2023-05-10T13:01:43;1.95;;;0.75;;
10154;SDS011;5118;48.570;7.916;2023-05-10T13:04:11;0.73;;;0.73;;
10154;SDS011;5118;48.570;7.916;2023-05-10T13:06:40;1.00;;;0.90;;
10154;SDS011;5118;48.570;7.916;2023-05-10T13:09:09;1.23;;;0.90;;
10154;SDS011;5118;48.570;7.916;2023-05-10T13:11:38;0.73;;;0.73;;
10154;SDS011;5118;48.570;7.916;2023-05-10T13:14:08;1.73;;;0.85;;
10154;SDS011;5118;48.570;7.916;2023-05-10T13:16:36;2.00;;;0.63;;
10154;SDS011;5118;48.570;7.916;2023-05-10T13:19:05;1.73;;;0.80;;
10154;SDS011;5118;48.570;7.916;2023-05-10T13:21:40;1.85;;;0.77;;
10154;SDS011;5118;48.570;7.916;2023-05-10T13:24:08;2.05;;;0.93;;
10154;SDS011;5118;48.570;7.916;2023-05-10T13:26:37;4.50;;;1.02;;
10154;SDS011;5118;48.570;7.916;2023-05-10T13:29:07;2.17;;;0.90;;
10154;SDS011;5118;48.570;7.916;2023-05-10T13:31:36;2.22;;;0.85;;
10154;SDS011;5118;48.570;7.916;2023-05-10T13:34:05;0.82;;;0.70;;
10154;SDS011;5118;48.570;7.916;2023-05-10T13:36:34;0.63;;;0.60;;
10154;SDS011;5118;48.570;7.916;2023-05-10T13:39:02;0.80;;;0.63;;
10154;SDS011;5118;48.570;7.916;2023-05-10T13:41:32;2.85;;;0.63;;
10154;SDS011;5118;48.570;7.916;2023-05-10T13:44:01;1.27;;;0.80;;
10154;SDS011;5118;48.570;7.916;2023-05-10T13:46:30;0.70;;;0.70;;
10154;SDS011;5118;48.570;7.916;2023-05-10T13:48:59;0.70;;;0.70;;
10154;SDS011;5118;48.570;7.916;2023-05-10T13:51:28;1.00;;;0.63;;
10154;SDS011;5118;48.570;7.916;2023-05-10T13:53:58;1.58;;;0.90;;
10154;SDS011;5118;48.570;7.916;2023-05-10T13:56:27;1.48;;;0.73;;
10154;SDS011;5118;48.570;7.916;2023-05-10T13:58:56;2.63;;;0.80;;
10154;SDS011;5118;48.570;7.916;2023-05-10T14:01:25;2.83;;;1.00;;
10154;SDS011;5118;48.570;7.916;2023-05-10T14:03:55;1.08;;;0.70;;
10154;SDS011;5118;48.570;7.916;2023-05-10T14:06:23;3.63;;;1.10;;
10154;SDS011;5118;48.570;7.916;2023-05-10T14:08:53;0.82;;;0.60;;
10154;SDS011;5118;48.570;7.916;2023-05-10T14:11:22;187.50;;;4.93;;
10154;SDS011;5118;48.570;7.916;2023-05-10T14:13:51;20.42;;;1.63;;
10154;SDS011;5118;48.570;7.916;2023-05-10T14:16:19;1.95;;;0.80;;
10154;SDS011;5118;48.570;7.916;2023-05-10T14:18:48;1.77;;;1.10;;
10154;SDS011;5118;48.570;7.916;2023-05-10T14:21:18;2.80;;;1.50;;
10154;SDS011;5118;48.570;7.916;2023-05-10T14:23:47;1.38;;;1.27;;
10154;SDS011;5118;48.570;7.916;2023-05-10T14:26:15;0.98;;;0.88;;
10154;SDS011;5118;48.570;7.916;2023-05-10T14:28:44;0.70;;;0.70;;
10154;SDS011;5118;48.570;7.916;2023-05-10T14:31:12;2.22;;;0.82;;
10154;SDS011;5118;48.570;7.916;2023-05-10T14:33:43;1.65;;;0.68;;
10154;SDS011;5118;48.570;7.916;2023-05-10T14:36:20;1.33;;;0.60;;
10154;SDS011;5118;48.570;7.916;2023-05-10T14:41:54;0.50;;;0.50;;
10154;SDS011;5118;48.570;7.916;2023-05-10T14:44:28;1.42;;;0.70;;
10154;SDS011;5118;48.570;7.916;2023-05-10T14:47:01;0.90;;;0.80;;
10154;SDS011;5118;48.570;7.916;2023-05-10T14:50:04;1.60;;;0.75;;
10154;SDS011;5118;48.570;7.916;2023-05-10T14:53:25;2.78;;;0.70;;
10154;SDS011;5118;48.570;7.916;2023-05-10T15:05:04;0.90;;;0.90;;
10154;SDS011;5118;48.570;7.916;2023-05-10T15:07:34;1.10;;;0.88;;
10154;SDS011;5118;48.570;7.916;2023-05-10T15:10:05;1.10;;;0.97;;
10154;SDS011;5118;48.570;7.916;2023-05-10T15:12:34;0.80;;;0.80;;
10154;SDS011;5118;48.570;7.916;2023-05-10T15:15:02;1.10;;;1.00;;
10154;SDS011;5118;48.570;7.916;2023-05-10T15:17:32;1.57;;;0.93;;
10154;SDS011;5118;48.570;7.916;2023-05-10T15:20:01;1.50;;;1.20;;
10154;SDS011;5118;48.570;7.916;2023-05-10T15:22:30;1.85;;;0.90;;
10154;SDS011;5118;48.570;7.916;2023-05-10T15:25:00;1.00;;;0.70;;
10154;SDS011;5118;48.570;7.916;2023-05-10T15:27:31;1.98;;;0.90;;
10154;SDS011;5118;48.570;7.916;2023-05-10T15:29:59;0.70;;;0.50;;
10154;SDS011;5118;48.570;7.916;2023-05-10T15:32:30;0.75;;;0.70;;
10154;SDS011;5118;48.570;7.916;2023-05-10T15:34:59;6.40;;;3.95;;
10154;SDS011;5118;48.570;7.916;2023-05-10T15:37:27;0.75;;;0.75;;
10154;SDS011;5118;48.570;7.916;2023-05-10T15:39:56;3.90;;;1.85;;
10154;SDS011;5118;48.570;7.916;2023-05-10T15:42:33;4.00;;;2.05;;
10154;SDS011;5118;48.570;7.916;2023-05-10T15:45:02;0.80;;;0.80;;